Česky Dansk Deutsch English Español Suomi Français Magyar Italiano Nederlands norsk Polski Português svenska Türkçe

 

Het Weer

Kittila (Finland)

15:20, 2 augustus 2016 (GMT)

NWNNE
WE
SWSSE
Home            
Kittila Sodankyla Enontekio Pello Rovaniemi Ivalo Kautokeino Gallivare Kiruna Airport Kemi Jokkmokk Alta Lufthavn Banak Lulea / Kallax Kuusamo Pudasjarvi Sorkjosen Vidsel Hailuoto Bardufoss Kirkenes Lufthavn Oulu Narvik Iii

Om een weerknop op uw website of weblog te plaatsen, copieer onderstaande code en plak die in uw pagina. In het eerste vakje staat HTML-code, in het tweede vakje UBB-code.


Add to Google

Details

Wind speed:1 bf, 2 kn, 1.0 m/s, 2.3 miles/h, 3.7 km/h
Wind direction:NE, 050°
Visibility:Greater than 10000 m, 10 km, 32800 ft, 6.2 miles
Clouds:Durchbrochene Bewölkung at 7100 ft, 2164 m
Het Weer:light showers of rain
Temperature:13°C, 55°F
Dew-point:12°C, 54°F
Atmospheric pressure:1006 hPa, 754.6 mmHg, 29.71 inHg, 0.993 atm
Relative humidity:93.6 %
METAR:EFKT 021520Z AUTO 05002KT 9999 -SHRA BKN071 13/12 Q1006

Snelkoppelingen

Actuele weersinformatie van de hele wereld. Voeg locaties toe met het plus (+) symbool. Deze snelkoppelingen kunnen worden toegevoegd aan Google.

Lid van de Technetium groep

website free tracking
StatCounter NetStat W3C Validator

14-04-2021 10:41:42
astro.technetium.be money.technetium.be phote.technetium.be tafeltennistafel.technetium.be www.ligfiets.net